Time;durP1;ratioP1;P1;durP2;ratioP2;P2;SDS_P1;SDS_P2;PMS_P1;PMS_P2;Temp;Humidity;BMP_temperature;BMP_pressure;BME280_temperature;BME280_humidity;BME280_pressure;Samples;Min_cycle;Max_cycle;Signal;HPM_P1;HPM_P2
2022/03/15 00:00:04;;;;;;;;;;;2.60;99.90;;;;;;5054285;28;20424;-74
2022/03/15 00:02:29;;;;;;;;;;;2.50;99.90;;;;;;5053975;28;19968;-74
2022/03/15 00:04:55;;;;;;;;;;;2.50;99.90;;;;;;5052836;28;19948;-74
2022/03/15 00:07:21;;;;;;;;;;;2.50;99.90;;;;;;5052333;28;20006;-74
2022/03/15 00:09:47;;;;;;;;;;;2.50;99.90;;;;;;5054037;28;20015;-75
2022/03/15 00:12:13;;;;;;;;;;;2.50;99.90;;;;;;5052778;28;20007;-75
2022/03/15 00:14:39;;;;;;;;;;;2.50;99.90;;;;;;5052957;28;20374;-74
2022/03/15 00:17:05;;;;;;;;;;;2.30;99.90;;;;;;5052720;28;19917;-74
2022/03/15 00:19:33;;;;;;;;;;;2.40;99.90;;;;;;5053947;28;20047;-73
2022/03/15 00:21:59;;;;;;;;;;;2.40;99.90;;;;;;5054124;28;19920;-73
2022/03/15 00:24:25;;;;;;;;;;;2.50;99.90;;;;;;5052672;28;20015;-74
2022/03/15 00:26:51;;;;;;;;;;;2.40;99.90;;;;;;5053539;28;20283;-74
2022/03/15 00:29:18;;;;;;;;;;;2.40;99.90;;;;;;5053785;28;19909;-74
2022/03/15 00:31:46;;;;;;;;;;;2.40;99.90;;;;;;5052585;28;20519;-75
2022/03/15 00:34:12;;;;;;;;;;;2.40;99.90;;;;;;5053778;28;20012;-75
2022/03/15 00:36:38;;;;;;;;;;;2.40;99.90;;;;;;5053607;28;19956;-74
2022/03/15 00:39:04;;;;;;;;;;;2.40;99.90;;;;;;5054139;28;19909;-73
2022/03/15 00:41:31;;;;;;;;;;;2.40;99.90;;;;;;5052378;28;19924;-74
2022/03/15 00:43:56;;;;;;;;;;;2.40;99.90;;;;;;5053402;28;19909;-73
2022/03/15 00:46:22;;;;;;;;;;;2.30;99.90;;;;;;5053676;28;19990;-74
2022/03/15 00:48:48;;;;;;;;;;;2.40;99.90;;;;;;5053379;28;19990;-74
2022/03/15 00:51:14;;;;;;;;;;;2.40;99.90;;;;;;5052365;28;19923;-75
2022/03/15 00:53:40;;;;;;;;;;;2.40;99.90;;;;;;5053294;28;20275;-74
2022/03/15 00:56:06;;;;;;;;;;;2.40;99.90;;;;;;5052062;28;20365;-74
2022/03/15 00:58:31;;;;;;;;;;;2.40;99.90;;;;;;5053245;28;19909;-73
2022/03/15 01:00:57;;;;;;;;;;;2.30;99.90;;;;;;5051658;28;19943;-75
2022/03/15 01:03:23;;;;;;;;;;;2.30;99.90;;;;;;5053155;28;19913;-73
2022/03/15 01:05:48;;;;;;;;;;;2.30;99.90;;;;;;5051703;28;19958;-73
2022/03/15 01:08:14;;;;;;;;;;;2.30;99.90;;;;;;5052858;28;19919;-73
2022/03/15 01:10:41;;;;;;;;;;;2.40;99.90;;;;;;5053050;28;19924;-75
2022/03/15 01:13:07;;;;;;;;;;;2.30;99.90;;;;;;5051466;28;19923;-74
2022/03/15 01:15:39;;;;;;;;;;;2.40;99.90;;;;;;5052839;28;19909;-74
2022/03/15 01:18:04;;;;;;;;;;;2.30;99.90;;;;;;5052799;28;19948;-73
2022/03/15 01:20:30;;;;;;;;;;;2.30;99.90;;;;;;5051904;28;19948;-74
2022/03/15 01:22:57;;;;;;;;;;;2.30;99.90;;;;;;5051189;28;19939;-73
2022/03/15 01:25:22;;;;;;;;;;;2.30;99.90;;;;;;5051137;28;19916;-74
2022/03/15 01:27:48;;;;;;;;;;;2.40;99.90;;;;;;5051095;28;19931;-74
2022/03/15 01:30:14;;;;;;;;;;;2.30;99.90;;;;;;5051337;28;19909;-74
2022/03/15 01:32:40;;;;;;;;;;;2.40;99.90;;;;;;5051304;28;19943;-74
2022/03/15 01:35:06;;;;;;;;;;;2.30;99.90;;;;;;5051191;28;19915;-74
2022/03/15 01:37:31;;;;;;;;;;;2.30;99.90;;;;;;5051136;28;19967;-75
2022/03/15 01:39:57;;;;;;;;;;;2.30;99.90;;;;;;5052419;28;19913;-74
2022/03/15 01:42:22;;;;;;;;;;;2.30;99.90;;;;;;5052755;28;20128;-74
2022/03/15 01:44:49;;;;;;;;;;;2.30;99.90;;;;;;5052227;28;19967;-74
2022/03/15 01:47:15;;;;;;;;;;;2.20;99.90;;;;;;5052597;28;19921;-75
2022/03/15 01:49:41;;;;;;;;;;;2.20;99.90;;;;;;5052174;28;19909;-75
2022/03/15 01:52:08;;;;;;;;;;;2.10;99.90;;;;;;5051996;28;19924;-74
2022/03/15 01:54:34;;;;;;;;;;;2.10;99.90;;;;;;5052071;28;19908;-74
2022/03/15 01:56:59;;;;;;;;;;;2.10;99.90;;;;;;5050794;28;20011;-75
2022/03/15 01:59:26;;;;;;;;;;;2.10;99.90;;;;;;5050624;28;19952;-75
2022/03/15 02:01:51;;;;;;;;;;;2.10;99.90;;;;;;5051663;28;20002;-75
2022/03/15 02:04:17;;;;;;;;;;;2.10;99.90;;;;;;5051881;28;19971;-74
2022/03/15 02:06:42;;;;;;;;;;;2.10;99.90;;;;;;5051993;28;19921;-75
2022/03/15 02:09:09;;;;;;;;;;;2.10;99.90;;;;;;5051651;28;19928;-75
2022/03/15 02:11:36;;;;;;;;;;;2.10;99.90;;;;;;5050136;28;20457;-74
2022/03/15 02:14:03;;;;;;;;;;;2.00;99.90;;;;;;5050661;28;20121;-74
2022/03/15 02:16:28;;;;;;;;;;;2.20;99.90;;;;;;5050360;28;20353;-74
2022/03/15 02:18:55;;;;;;;;;;;2.10;99.90;;;;;;5051589;28;19937;-75
2022/03/15 02:21:21;;;;;;;;;;;2.10;99.90;;;;;;5050401;28;19921;-75
2022/03/15 02:23:47;;;;;;;;;;;1.90;99.90;;;;;;5051448;28;19963;-74
2022/03/15 02:26:13;;;;;;;;;;;1.90;99.90;;;;;;5050009;28;20313;-74
2022/03/15 02:28:39;;;;;;;;;;;1.80;99.90;;;;;;5050045;28;20360;-74
2022/03/15 02:31:04;;;;;;;;;;;1.80;99.90;;;;;;5050312;28;19924;-73
2022/03/15 02:33:30;;;;;;;;;;;1.80;99.90;;;;;;5050114;28;20618;-74
2022/03/15 02:35:56;;;;;;;;;;;1.70;99.90;;;;;;5051497;28;20005;-75
2022/03/15 02:38:21;;;;;;;;;;;1.70;99.90;;;;;;5051365;28;20417;-74
2022/03/15 02:40:47;;;;;;;;;;;1.80;99.90;;;;;;5050293;28;19967;-75
2022/03/15 02:43:12;;;;;;;;;;;1.80;99.90;;;;;;5051293;28;19920;-75
2022/03/15 02:45:38;;;;;;;;;;;1.80;99.90;;;;;;5051035;28;19921;-74
2022/03/15 02:48:04;;;;;;;;;;;1.70;99.90;;;;;;5049973;28;19909;-74
2022/03/15 02:50:30;;;;;;;;;;;1.70;99.90;;;;;;5051230;28;19909;-74
2022/03/15 02:52:55;;;;;;;;;;;1.60;99.90;;;;;;5051104;28;19915;-73
2022/03/15 02:55:21;;;;;;;;;;;1.60;99.90;;;;;;5051102;28;19935;-75
2022/03/15 02:57:47;;;;;;;;;;;1.60;99.90;;;;;;5050870;28;20272;-75
2022/03/15 03:00:16;;;;;;;;;;;1.50;99.90;;;;;;5049675;28;20081;-75
2022/03/15 03:02:42;;;;;;;;;;;1.60;99.90;;;;;;5050783;28;20388;-72
2022/03/15 03:05:08;;;;;;;;;;;1.60;99.90;;;;;;5051165;28;20310;-74
2022/03/15 03:07:34;;;;;;;;;;;1.70;99.90;;;;;;5049900;28;20012;-76
2022/03/15 03:10:00;;;;;;;;;;;1.70;99.90;;;;;;5050873;28;19913;-75
2022/03/15 03:12:30;;;;;;;;;;;1.70;99.90;;;;;;5051615;28;19913;-75
2022/03/15 03:14:56;;;;;;;;;;;1.70;99.90;;;;;;5049762;28;20021;-77
2022/03/15 03:17:24;;;;;;;;;;;1.70;99.90;;;;;;5051589;28;20060;-74
2022/03/15 03:19:49;;;;;;;;;;;1.80;99.90;;;;;;5049552;28;20283;-73
2022/03/15 03:22:15;;;;;;;;;;;1.70;99.90;;;;;;5051432;28;20008;-74
2022/03/15 03:24:41;;;;;;;;;;;1.70;99.90;;;;;;5051035;28;19935;-74
2022/03/15 03:27:07;;;;;;;;;;;1.80;99.90;;;;;;5051174;28;20377;-74
2022/03/15 03:29:32;;;;;;;;;;;1.50;99.90;;;;;;5050907;28;19920;-73
2022/03/15 03:31:58;;;;;;;;;;;1.40;99.90;;;;;;5049616;28;20004;-75
2022/03/15 03:34:24;;;;;;;;;;;1.40;99.90;;;;;;5049184;28;19916;-73
2022/03/15 03:36:49;;;;;;;;;;;1.30;99.90;;;;;;5049739;28;19948;-74
2022/03/15 03:39:15;;;;;;;;;;;1.40;99.90;;;;;;5050817;28;19963;-75
2022/03/15 03:41:40;;;;;;;;;;;1.50;99.90;;;;;;5049450;28;19913;-75
2022/03/15 03:44:06;;;;;;;;;;;1.50;99.90;;;;;;5052261;28;19919;-74
2022/03/15 03:46:32;;;;;;;;;;;1.50;99.90;;;;;;5054689;28;19952;-74
2022/03/15 03:48:58;;;;;;;;;;;1.60;99.90;;;;;;5053181;28;19923;-76
2022/03/15 03:51:23;;;;;;;;;;;1.50;99.90;;;;;;5054687;28;20319;-74
2022/03/15 03:53:49;;;;;;;;;;;1.50;99.90;;;;;;5054330;28;20000;-75
2022/03/15 03:56:15;;;;;;;;;;;1.50;99.90;;;;;;5054521;28;19944;-74
2022/03/15 03:58:40;;;;;;;;;;;1.30;99.90;;;;;;5054175;28;19912;-74
2022/03/15 04:01:06;;;;;;;;;;;1.40;99.90;;;;;;5054095;28;20066;-75
2022/03/15 04:03:33;;;;;;;;;;;1.40;99.90;;;;;;5054115;28;19927;-73
2022/03/15 04:06:01;;;;;;;;;;;1.40;99.90;;;;;;5052578;28;20369;-74
2022/03/15 04:08:26;;;;;;;;;;;1.40;99.90;;;;;;5054041;28;19917;-74
2022/03/15 04:10:52;;;;;;;;;;;1.40;99.90;;;;;;5053989;28;19978;-74
2022/03/15 04:13:21;;;;;;;;;;;1.40;99.90;;;;;;5052705;28;19921;-74
2022/03/15 04:15:46;;;;;;;;;;;1.30;99.90;;;;;;5052520;28;19916;-74
2022/03/15 04:18:12;;;;;;;;;;;1.20;99.90;;;;;;5054096;28;19912;-74
2022/03/15 04:20:38;;;;;;;;;;;1.20;99.90;;;;;;5052531;28;19944;-76
2022/03/15 04:23:04;;;;;;;;;;;1.20;99.90;;;;;;5053004;28;20357;-74
2022/03/15 04:25:30;;;;;;;;;;;1.20;99.90;;;;;;5052351;28;19924;-75
2022/03/15 04:28:00;;;;;;;;;;;1.20;99.90;;;;;;5052403;28;19913;-74
2022/03/15 04:30:26;;;;;;;;;;;1.20;99.90;;;;;;5052438;28;20004;-75
2022/03/15 04:32:52;;;;;;;;;;;1.30;99.90;;;;;;5053642;28;19912;-74
2022/03/15 04:35:17;;;;;;;;;;;1.10;99.90;;;;;;5052239;28;19916;-74
2022/03/15 04:37:43;;;;;;;;;;;1.10;99.90;;;;;;5053605;28;19920;-73
2022/03/15 04:40:09;;;;;;;;;;;1.10;99.90;;;;;;5053489;28;19982;-75
2022/03/15 04:42:35;;;;;;;;;;;1.10;99.90;;;;;;5052231;28;19912;-74
2022/03/15 04:45:01;;;;;;;;;;;1.20;99.90;;;;;;5053572;28;19919;-74
2022/03/15 04:47:27;;;;;;;;;;;1.20;99.90;;;;;;5052153;28;20415;-73
2022/03/15 04:49:52;;;;;;;;;;;1.20;99.90;;;;;;5053402;28;19953;-74
2022/03/15 04:52:18;;;;;;;;;;;1.20;99.90;;;;;;5051880;28;20009;-76
2022/03/15 04:54:44;;;;;;;;;;;1.30;99.90;;;;;;5052089;28;19920;-75
2022/03/15 04:57:10;;;;;;;;;;;1.30;99.90;;;;;;5053597;28;20261;-74
2022/03/15 04:59:35;;;;;;;;;;;1.30;99.90;;;;;;5053351;28;19913;-73
2022/03/15 05:02:01;;;;;;;;;;;1.30;99.90;;;;;;5052923;28;20043;-74
2022/03/15 05:04:27;;;;;;;;;;;1.40;99.90;;;;;;5051940;28;20482;-73
2022/03/15 05:06:52;;;;;;;;;;;1.30;99.90;;;;;;5053119;28;19928;-72
2022/03/15 05:09:18;;;;;;;;;;;1.40;99.90;;;;;;5053195;28;19965;-74
2022/03/15 05:11:46;;;;;;;;;;;1.40;99.90;;;;;;5051723;28;19955;-75
2022/03/15 05:14:12;;;;;;;;;;;1.30;99.90;;;;;;5051996;28;20035;-75
2022/03/15 05:16:38;;;;;;;;;;;1.40;99.90;;;;;;5051481;28;19982;-74
2022/03/15 05:19:04;;;;;;;;;;;1.50;99.90;;;;;;5052972;28;20361;-74
2022/03/15 05:21:29;;;;;;;;;;;1.50;99.90;;;;;;5053008;28;20387;-75
2022/03/15 05:23:58;;;;;;;;;;;0.40;99.90;;;;;;5051485;28;19989;-74
2022/03/15 05:26:24;;;;;;;;;;;1.70;99.90;;;;;;5052944;28;19921;-74
2022/03/15 05:28:50;;;;;;;;;;;1.80;99.90;;;;;;5052785;28;20353;-75
2022/03/15 05:31:16;;;;;;;;;;;1.80;99.90;;;;;;5051391;28;19921;-74
2022/03/15 05:33:43;;;;;;;;;;;1.80;99.90;;;;;;5052530;28;19995;-74
2022/03/15 05:36:09;;;;;;;;;;;2.00;99.90;;;;;;5051097;28;20416;-74
2022/03/15 05:38:35;;;;;;;;;;;2.10;99.90;;;;;;5051097;28;19908;-75
2022/03/15 05:41:01;;;;;;;;;;;2.30;99.90;;;;;;5052937;28;19917;-74
2022/03/15 05:43:27;;;;;;;;;;;2.50;99.90;;;;;;5052843;28;19908;-75
2022/03/15 05:45:52;;;;;;;;;;;2.80;99.90;;;;;;5052443;28;20416;-75
2022/03/15 05:48:19;;;;;;;;;;;3.00;99.90;;;;;;5051019;28;19913;-75
2022/03/15 05:50:45;;;;;;;;;;;3.20;99.90;;;;;;5052448;28;19986;-75
2022/03/15 05:53:10;;;;;;;;;;;3.50;99.90;;;;;;5051967;28;19913;-74
2022/03/15 05:55:36;;;;;;;;;;;3.80;99.90;;;;;;5050724;28;19913;-74
2022/03/15 05:58:02;;;;;;;;;;;4.00;99.90;;;;;;5050475;28;19995;-74
2022/03/15 06:00:28;;;;;;;;;;;4.00;99.90;;;;;;5050707;28;19916;-76
2022/03/15 06:02:54;;;;;;;;;;;4.10;99.90;;;;;;5050312;28;19925;-75
2022/03/15 06:05:20;;;;;;;;;;;4.20;99.90;;;;;;5051557;28;19916;-74
2022/03/15 06:07:46;;;;;;;;;;;4.30;99.90;;;;;;5050459;28;19936;-75
2022/03/15 06:10:12;;;;;;;;;;;4.50;99.90;;;;;;5052032;28;19950;-74
2022/03/15 06:12:37;;;;;;;;;;;4.50;99.90;;;;;;5052085;28;19987;-73
2022/03/15 06:15:03;;;;;;;;;;;4.50;99.90;;;;;;5050416;28;19916;-74
2022/03/15 06:17:28;;;;;;;;;;;4.60;99.90;;;;;;5050047;28;19916;-74
2022/03/15 06:19:54;;;;;;;;;;;4.60;99.90;;;;;;5051635;28;20288;-74
2022/03/15 06:22:20;;;;;;;;;;;4.60;99.90;;;;;;5050484;28;19995;-74
2022/03/15 06:24:45;;;;;;;;;;;4.80;99.90;;;;;;5051739;28;19923;-74
2022/03/15 06:27:11;;;;;;;;;;;5.00;99.90;;;;;;5050321;28;19920;-75
2022/03/15 06:29:36;;;;;;;;;;;5.20;99.90;;;;;;5051916;28;20268;-75
2022/03/15 06:32:02;;;;;;;;;;;5.30;99.90;;;;;;5051873;28;20271;-74
2022/03/15 06:34:27;;;;;;;;;;;5.50;99.90;;;;;;5051517;28;19916;-73
2022/03/15 06:36:53;;;;;;;;;;;5.60;99.90;;;;;;5051775;28;19965;-75
2022/03/15 06:39:18;;;;;;;;;;;5.70;99.90;;;;;;5051452;28;20318;-74
2022/03/15 06:41:44;;;;;;;;;;;5.70;99.90;;;;;;5051395;28;19927;-73
2022/03/15 06:44:11;;;;;;;;;;;5.80;99.90;;;;;;5051221;28;19909;-73
2022/03/15 06:46:36;;;;;;;;;;;5.80;99.90;;;;;;5050073;28;19927;-73
2022/03/15 06:49:02;;;;;;;;;;;5.70;99.90;;;;;;5050058;28;19913;-73
2022/03/15 06:51:28;;;;;;;;;;;5.80;99.90;;;;;;5050120;28;20027;-75
2022/03/15 06:53:54;;;;;;;;;;;6.00;99.90;;;;;;5051600;28;20442;-75
2022/03/15 06:56:20;;;;;;;;;;;6.10;99.90;;;;;;5051535;28;19917;-74
2022/03/15 06:58:46;;;;;;;;;;;6.20;99.90;;;;;;5050092;28;19908;-74
2022/03/15 07:01:12;;;;;;;;;;;6.40;99.90;;;;;;5051139;28;19929;-74
2022/03/15 07:03:37;;;;;;;;;;;6.60;99.90;;;;;;5050131;28;20632;-74
2022/03/15 07:06:03;;;;;;;;;;;7.00;99.90;;;;;;5051258;28;19921;-76
2022/03/15 07:08:29;;;;;;;;;;;7.10;99.90;;;;;;5050118;28;20403;-76
2022/03/15 07:10:55;;;;;;;;;;;7.10;99.90;;;;;;5050381;28;20384;-76
2022/03/15 07:13:20;;;;;;;;;;;7.30;99.90;;;;;;5049886;28;19967;-75
2022/03/15 07:15:46;;;;;;;;;;;7.30;99.90;;;;;;5049792;28;19920;-75
2022/03/15 07:18:12;;;;;;;;;;;7.50;99.90;;;;;;5052684;28;19909;-73
2022/03/15 07:23:43;;;;;;;;;;;7.70;99.80;;;;;;5054998;28;19916;-73
2022/03/15 07:26:09;;;;;;;;;;;7.60;99.50;;;;;;5053744;28;20274;-74
2022/03/15 07:28:34;;;;;;;;;;;7.70;99.70;;;;;;5051970;28;19913;-66
2022/03/15 07:31:00;;;;;;;;;;;7.80;99.90;;;;;;5040768;28;20300;-66
2022/03/15 07:33:26;;;;;;;;;;;8.00;99.20;;;;;;5033735;28;20340;-66
2022/03/15 07:35:51;;;;;;;;;;;8.20;99.50;;;;;;5037872;28;19923;-66
2022/03/15 07:38:17;;;;;;;;;;;8.30;99.60;;;;;;5041381;28;19921;-66
2022/03/15 07:40:43;;;;;;;;;;;8.30;98.70;;;;;;5054872;28;20265;-75
2022/03/15 07:43:09;;;;;;;;;;;8.60;98.70;;;;;;5053563;28;19913;-74
2022/03/15 07:45:35;;;;;;;;;;;8.90;97.90;;;;;;5054771;28;20327;-74
2022/03/15 07:48:00;;;;;;;;;;;9.10;97.80;;;;;;5054543;28;19955;-74
2022/03/15 07:50:26;;;;;;;;;;;9.10;97.40;;;;;;5054618;28;19988;-73
2022/03/15 07:52:53;;;;;;;;;;;9.30;97.10;;;;;;5053205;28;19919;-73
2022/03/15 07:55:28;;;;;;;;;;;9.40;96.40;;;;;;5053021;28;20385;-72
2022/03/15 07:57:53;;;;;;;;;;;10.70;96.40;;;;;;5054319;28;19909;-74
2022/03/15 08:00:19;;;;;;;;;;;9.40;95.60;;;;;;5052877;28;19916;-73
2022/03/15 08:02:45;;;;;;;;;;;9.30;96.10;;;;;;5054218;28;19928;-73
2022/03/15 08:05:10;;;;;;;;;;;9.40;96.20;;;;;;5054499;28;19909;-73
2022/03/15 08:07:36;;;;;;;;;;;9.60;96.20;;;;;;5054620;28;20010;-75
2022/03/15 08:10:07;;;;;;;;;;;9.90;95.40;;;;;;5054167;28;19920;-75
2022/03/15 08:12:33;;;;;;;;;;;10.00;94.90;;;;;;5052998;28;19917;-74
2022/03/15 08:14:59;;;;;;;;;;;10.20;94.80;;;;;;5053293;28;20356;-74
2022/03/15 08:17:25;;;;;;;;;;;10.40;94.50;;;;;;5053021;28;19916;-73
2022/03/15 08:19:51;;;;;;;;;;;10.70;93.90;;;;;;5054211;28;19941;-74
2022/03/15 08:22:17;;;;;;;;;;;11.00;93.60;;;;;;5054599;28;19967;-75
2022/03/15 08:24:42;;;;;;;;;;;11.10;92.90;;;;;;5053102;28;20456;-73
2022/03/15 08:27:08;;;;;;;;;;;11.30;92.10;;;;;;5052482;28;19967;-73
2022/03/15 08:29:34;;;;;;;;;;;11.40;91.90;;;;;;5052127;28;19970;-73
2022/03/15 08:32:00;;;;;;;;;;;11.60;91.60;;;;;;5052698;28;19921;-73
2022/03/15 08:34:25;;;;;;;;;;;11.80;91.00;;;;;;5053687;28;19909;-73
2022/03/15 08:36:53;;;;;;;;;;;12.00;90.60;;;;;;5052698;28;20016;-73
2022/03/15 08:39:21;;;;;;;;;;;12.20;89.70;;;;;;5053741;28;19913;-74
2022/03/15 08:41:50;;;;;;;;;;;12.20;89.10;;;;;;5054167;28;20391;-74
2022/03/15 08:44:16;;;;;;;;;;;12.30;87.20;;;;;;5052249;28;20012;-75
2022/03/15 08:46:42;;;;;;;;;;;12.40;86.90;;;;;;5052393;28;20049;-74
2022/03/15 08:49:08;;;;;;;;;;;12.50;86.40;;;;;;5052203;28;19909;-74
2022/03/15 08:51:34;;;;;;;;;;;12.60;84.80;;;;;;5053901;28;19917;-73
2022/03/15 08:54:00;;;;;;;;;;;12.70;82.70;;;;;;5053262;28;19924;-72
2022/03/15 08:56:26;;;;;;;;;;;12.90;82.60;;;;;;5053339;28;19921;-75
2022/03/15 08:58:51;;;;;;;;;;;13.00;82.50;;;;;;5053376;28;19920;-75
2022/03/15 09:01:17;;;;;;;;;;;12.90;81.90;;;;;;5052940;28;20007;-74
2022/03/15 09:03:43;;;;;;;;;;;13.00;82.20;;;;;;5053095;28;20326;-74
2022/03/15 09:06:08;;;;;;;;;;;13.00;81.90;;;;;;5051665;28;19925;-74
2022/03/15 09:08:34;;;;;;;;;;;13.10;81.60;;;;;;5051766;28;19909;-74
2022/03/15 09:11:03;;;;;;;;;;;13.50;81.10;;;;;;5051711;28;20073;-74
2022/03/15 09:13:28;;;;;;;;;;;13.70;79.30;;;;;;5053085;28;19928;-74
2022/03/15 09:15:54;;;;;;;;;;;13.80;78.30;;;;;;5051444;28;19921;-73
2022/03/15 09:18:20;;;;;;;;;;;13.50;77.60;;;;;;5051571;28;19909;-74
2022/03/15 09:20:46;;;;;;;;;;;13.40;77.50;;;;;;5052739;28;19917;-74
2022/03/15 09:23:12;;;;;;;;;;;13.30;78.00;;;;;;5051247;28;19908;-74
2022/03/15 09:25:38;;;;;;;;;;;13.50;77.80;;;;;;5052610;28;19932;-75
2022/03/15 09:28:04;;;;;;;;;;;13.50;77.40;;;;;;5052605;28;19913;-75
2022/03/15 09:30:30;;;;;;;;;;;13.50;77.60;;;;;;5052668;28;20003;-76
2022/03/15 09:32:57;;;;;;;;;;;13.90;77.20;;;;;;5051243;28;19987;-75
2022/03/15 09:35:23;;;;;;;;;;;14.10;75.50;;;;;;5050973;28;19909;-74
2022/03/15 09:37:49;;;;;;;;;;;14.10;74.60;;;;;;5052457;28;20634;-73
2022/03/15 09:40:16;;;;;;;;;;;14.10;75.10;;;;;;5050508;28;19963;-74
2022/03/15 09:42:44;;;;;;;;;;;14.00;75.00;;;;;;5051152;28;19924;-74
2022/03/15 09:45:10;;;;;;;;;;;13.80;75.30;;;;;;5052672;28;20428;-74
2022/03/15 09:47:35;;;;;;;;;;;13.90;75.60;;;;;;5052701;28;19917;-74
2022/03/15 09:50:03;;;;;;;;;;;14.00;75.40;;;;;;5052893;28;20331;-73
2022/03/15 09:52:29;;;;;;;;;;;14.00;74.90;;;;;;5051946;28;19924;-73
2022/03/15 09:54:55;;;;;;;;;;;14.10;73.60;;;;;;5051159;28;20251;-74
2022/03/15 09:57:21;;;;;;;;;;;14.20;75.10;;;;;;5053108;28;20019;-73
2022/03/15 09:59:49;;;;;;;;;;;14.20;75.10;;;;;;5052202;28;19908;-73
2022/03/15 10:02:15;;;;;;;;;;;14.10;73.90;;;;;;5052156;28;20015;-74
2022/03/15 10:04:41;;;;;;;;;;;14.10;73.60;;;;;;5052370;28;19963;-74
2022/03/15 10:07:08;;;;;;;;;;;14.30;72.40;;;;;;5050709;28;20388;-74
2022/03/15 10:09:34;;;;;;;;;;;14.30;70.40;;;;;;5050737;28;20422;-73
2022/03/15 10:12:01;;;;;;;;;;;14.20;69.70;;;;;;5052233;28;20379;-74
2022/03/15 10:14:27;;;;;;;;;;;14.10;69.80;;;;;;5052125;28;19913;-73
2022/03/15 10:16:59;;;;;;;;;;;14.10;69.20;;;;;;5052309;28;20015;-74
2022/03/15 10:19:25;;;;;;;;;;;14.10;68.30;;;;;;5052187;28;20312;-73
2022/03/15 10:21:52;;;;;;;;;;;14.00;67.30;;;;;;5052182;28;19916;-73
2022/03/15 10:24:22;;;;;;;;;;;14.00;67.80;;;;;;5050716;28;19913;-73
2022/03/15 10:26:49;;;;;;;;;;;13.80;67.90;;;;;;5051705;28;19913;-74
2022/03/15 10:29:16;;;;;;;;;;;13.80;66.80;;;;;;5051539;28;19979;-74
2022/03/15 10:31:43;;;;;;;;;;;14.00;67.30;;;;;;5050112;28;19985;-74
2022/03/15 10:34:08;;;;;;;;;;;14.20;66.40;;;;;;5051772;28;19963;-72
2022/03/15 10:36:41;;;;;;;;;;;14.50;65.40;;;;;;5049978;28;20438;-74
2022/03/15 10:39:08;;;;;;;;;;;14.50;66.60;;;;;;5050273;28;20364;-73
2022/03/15 10:41:52;;;;;;;;;;;14.80;65.90;;;;;;5050208;28;19940;-73
2022/03/15 10:44:28;;;;;;;;;;;14.90;65.30;;;;;;5050175;28;20237;-74
2022/03/15 10:47:21;;;;;;;;;;;14.80;64.60;;;;;;5050135;28;19913;-73
2022/03/15 10:49:50;;;;;;;;;;;14.70;65.30;;;;;;5047669;28;19935;-74
2022/03/15 10:52:28;;;;;;;;;;;14.80;65.60;;;;;;5050176;28;20276;-74
2022/03/15 10:54:53;;;;;;;;;;;14.90;65.40;;;;;;5050299;28;19916;-75
2022/03/15 10:57:19;;;;;;;;;;;15.20;65.60;;;;;;5051775;28;19921;-75
2022/03/15 10:59:44;;;;;;;;;;;15.40;64.80;;;;;;5051730;28;19941;-74
2022/03/15 11:02:13;;;;;;;;;;;15.00;64.70;;;;;;5051282;28;19924;-75
2022/03/15 11:04:45;;;;;;;;;;;15.10;64.00;;;;;;5049959;28;19948;-74
2022/03/15 11:07:11;;;;;;;;;;;14.90;64.00;;;;;;5051785;28;19917;-73
2022/03/15 11:09:36;;;;;;;;;;;14.90;63.00;;;;;;5050073;28;20010;-74
2022/03/15 11:12:06;;;;;;;;;;;14.70;62.90;;;;;;5049991;28;19924;-73
2022/03/15 11:14:40;;;;;;;;;;;14.80;63.30;;;;;;5051444;28;19908;-75
2022/03/15 11:17:13;;;;;;;;;;;14.90;63.10;;;;;;5051804;28;19921;-74
2022/03/15 11:19:40;;;;;;;;;;;15.00;62.60;;;;;;5050070;28;19917;-76
2022/03/15 11:22:06;;;;;;;;;;;15.40;62.90;;;;;;5051764;28;19947;-75
2022/03/15 11:24:37;;;;;;;;;;;15.40;60.80;;;;;;5052407;28;19909;-74
2022/03/15 11:27:05;;;;;;;;;;;14.90;60.00;;;;;;5050002;28;19917;-74
2022/03/15 11:29:32;;;;;;;;;;;14.70;61.20;;;;;;5051266;28;19916;-74
2022/03/15 11:31:58;;;;;;;;;;;14.70;61.60;;;;;;5050058;28;19939;-73
2022/03/15 11:34:24;;;;;;;;;;;15.00;60.60;;;;;;5051356;28;20305;-73
2022/03/15 11:36:50;;;;;;;;;;;15.20;60.30;;;;;;5049706;28;20011;-74
2022/03/15 11:39:15;;;;;;;;;;;15.20;59.20;;;;;;5049910;28;19908;-74
2022/03/15 11:41:42;;;;;;;;;;;15.00;60.10;;;;;;5049799;28;19966;-74
2022/03/15 11:44:11;;;;;;;;;;;15.20;60.10;;;;;;5049647;28;20428;-74
2022/03/15 11:46:46;;;;;;;;;;;15.60;59.60;;;;;;5049969;28;19924;-74
2022/03/15 11:49:30;;;;;;;;;;;15.80;60.00;;;;;;5050984;28;20009;-74
2022/03/15 11:52:17;;;;;;;;;;;15.90;59.50;;;;;;5049592;28;19917;-73
2022/03/15 11:55:05;;;;;;;;;;;15.60;60.10;;;;;;5051175;28;20003;-72
2022/03/15 11:57:56;;;;;;;;;;;14.80;61.60;;;;;;5051347;28;20023;-74
2022/03/15 12:00:49;;;;;;;;;;;14.10;62.10;;;;;;5045707;28;19932;-73
2022/03/15 12:03:15;;;;;;;;;;;13.40;64.10;;;;;;5046272;28;19921;-74
2022/03/15 12:05:45;;;;;;;;;;;12.80;65.00;;;;;;5054421;28;19967;-75
2022/03/15 12:08:15;;;;;;;;;;;12.60;66.30;;;;;;5054464;28;19913;-72
2022/03/15 12:10:48;;;;;;;;;;;12.40;67.50;;;;;;5052971;28;20015;-75
2022/03/15 12:13:14;;;;;;;;;;;12.20;68.60;;;;;;5052988;28;19920;-73
2022/03/15 12:15:42;;;;;;;;;;;12.00;69.90;;;;;;5053028;28;19913;-74
2022/03/15 12:18:42;;;;;;;;;;;12.00;69.50;;;;;;5054234;28;19913;-73
2022/03/15 12:21:08;;;;;;;;;;;11.90;70.20;;;;;;5052287;28;19917;-74
2022/03/15 12:23:39;;;;;;;;;;;11.80;70.00;;;;;;5054154;28;19912;-73
2022/03/15 12:26:05;;;;;;;;;;;11.60;69.50;;;;;;5054482;28;20429;-74
2022/03/15 12:28:32;;;;;;;;;;;11.40;70.00;;;;;;5053953;28;19917;-74
2022/03/15 12:31:05;;;;;;;;;;;11.30;70.20;;;;;;5053984;28;19927;-75
2022/03/15 12:33:31;;;;;;;;;;;11.30;70.80;;;;;;5052590;28;19927;-74
2022/03/15 12:36:02;;;;;;;;;;;11.20;71.30;;;;;;5052575;28;19917;-73
2022/03/15 12:38:38;;;;;;;;;;;11.20;71.90;;;;;;5053856;28;20046;-72
2022/03/15 12:41:04;;;;;;;;;;;11.10;71.80;;;;;;5054156;28;19920;-74
2022/03/15 12:43:30;;;;;;;;;;;11.10;72.60;;;;;;5053788;28;19913;-74
2022/03/15 12:45:59;;;;;;;;;;;11.10;72.30;;;;;;5053791;28;19912;-73
2022/03/15 12:48:30;;;;;;;;;;;11.00;72.60;;;;;;5053930;28;19944;-73
2022/03/15 12:50:59;;;;;;;;;;;11.00;72.90;;;;;;5053620;28;20288;-73
2022/03/15 12:53:41;;;;;;;;;;;11.00;72.90;;;;;;5053548;28;19927;-74
2022/03/15 12:56:10;;;;;;;;;;;11.00;72.60;;;;;;5052397;28;19916;-74
2022/03/15 12:58:35;;;;;;;;;;;11.00;72.90;;;;;;5052253;28;19935;-74
2022/03/15 13:01:03;;;;;;;;;;;10.90;73.30;;;;;;5051917;28;20356;-74
2022/03/15 13:03:29;;;;;;;;;;;11.00;72.80;;;;;;5052491;28;19923;-73
2022/03/15 13:05:57;;;;;;;;;;;11.00;73.00;;;;;;5053501;28;19921;-75
2022/03/15 13:08:23;;;;;;;;;;;11.00;72.90;;;;;;5052174;28;19982;-72
2022/03/15 13:10:49;;;;;;;;;;;11.10;72.50;;;;;;5052055;28;19968;-73
2022/03/15 13:13:18;;;;;;;;;;;11.20;72.60;;;;;;5053131;28;19948;-74
2022/03/15 13:16:03;;;;;;;;;;;11.30;72.30;;;;;;5050670;28;19938;-74
2022/03/15 13:18:30;;;;;;;;;;;11.40;71.60;;;;;;5053026;28;19912;-72
2022/03/15 13:21:01;;;;;;;;;;;11.60;71.80;;;;;;5051697;28;19917;-74
2022/03/15 13:23:30;;;;;;;;;;;11.60;71.60;;;;;;5052922;28;19963;-74
2022/03/15 13:26:05;;;;;;;;;;;11.60;71.30;;;;;;5052001;28;19945;-74
2022/03/15 13:28:32;;;;;;;;;;;11.60;70.90;;;;;;5053027;28;19913;-77
2022/03/15 13:30:59;;;;;;;;;;;11.60;71.20;;;;;;5053264;28;20327;-72
2022/03/15 13:33:32;;;;;;;;;;;11.60;70.70;;;;;;5053201;28;19915;-74
2022/03/15 13:36:04;;;;;;;;;;;11.50;70.00;;;;;;5051406;28;19921;-74
2022/03/15 13:38:30;;;;;;;;;;;11.40;70.40;;;;;;5052848;28;19977;-73
2022/03/15 13:40:57;;;;;;;;;;;11.30;70.60;;;;;;5052843;28;19928;-75
2022/03/15 13:43:23;;;;;;;;;;;11.20;70.60;;;;;;5051232;28;20015;-75
2022/03/15 13:45:49;;;;;;;;;;;11.20;70.40;;;;;;5051369;28;19920;-74
2022/03/15 13:48:25;;;;;;;;;;;11.30;70.60;;;;;;5052739;28;19932;-73
2022/03/15 13:51:06;;;;;;;;;;;11.30;70.40;;;;;;5051191;28;19916;-73
2022/03/15 13:53:32;;;;;;;;;;;11.40;70.40;;;;;;5051117;28;19943;-73
2022/03/15 13:56:13;;;;;;;;;;;11.40;70.10;;;;;;5050877;28;19963;-74
2022/03/15 13:58:47;;;;;;;;;;;11.40;69.90;;;;;;5051111;28;19923;-75
2022/03/15 14:01:14;;;;;;;;;;;11.40;70.00;;;;;;5050880;28;20436;-73
2022/03/15 14:03:40;;;;;;;;;;;11.30;70.10;;;;;;5050942;28;20000;-73
2022/03/15 14:06:06;;;;;;;;;;;11.10;70.30;;;;;;5052261;28;20335;-73
2022/03/15 14:08:49;;;;;;;;;;;11.00;70.70;;;;;;5052295;28;20261;-73
2022/03/15 14:11:19;;;;;;;;;;;11.00;70.90;;;;;;5051923;28;19923;-74
2022/03/15 14:14:03;;;;;;;;;;;10.90;71.10;;;;;;5052265;28;19976;-74
2022/03/15 14:16:34;;;;;;;;;;;10.80;71.10;;;;;;5050929;28;19965;-74
2022/03/15 14:19:01;;;;;;;;;;;10.70;71.10;;;;;;5052111;28;20356;-73
2022/03/15 14:21:28;;;;;;;;;;;10.70;71.00;;;;;;5050550;28;19967;-72
2022/03/15 14:23:54;;;;;;;;;;;10.70;71.60;;;;;;5050543;28;19959;-74
2022/03/15 14:26:27;;;;;;;;;;;10.70;71.30;;;;;;5051805;28;19925;-74